Time;durP1;ratioP1;P1;durP2;ratioP2;P2;SDS_P1;SDS_P2;PMS_P1;PMS_P2;Temp;Humidity;BMP_temperature;BMP_pressure;BME280_temperature;BME280_humidity;BME280_pressure;Samples;Min_cycle;Max_cycle;Signal;HPM_P1;HPM_P2
2022/11/24 00:00:05;;;;;;;;;;;;;;;19.37;46.03;100048.13;5121623;28;20286;-37
2022/11/24 00:02:31;;;;;;;;;;;;;;;19.37;46.07;100050.06;5118895;28;20026;-39
2022/11/24 00:04:57;;;;;;;;;;;;;;;19.38;46.07;100051.69;5114199;28;19923;-38
2022/11/24 00:07:22;;;;;;;;;;;;;;;19.37;46.30;100047.31;5123419;27;19934;-39
2022/11/24 00:09:48;;;;;;;;;;;;;;;19.36;46.32;100049.25;5121117;28;20365;-39
2022/11/24 00:12:13;;;;;;;;;;;;;;;19.36;46.08;100045.66;5125437;28;19927;-40
2022/11/24 00:14:39;;;;;;;;;;;;;;;19.36;46.18;100046.50;5119025;28;19923;-39
2022/11/24 00:17:05;;;;;;;;;;;;;;;19.36;46.42;100056.72;5120581;28;19928;-39
2022/11/24 00:19:30;;;;;;;;;;;;;;;19.36;46.44;100052.00;5125726;27;20371;-39
2022/11/24 00:21:56;;;;;;;;;;;;;;;19.36;46.13;100052.00;5122920;28;20002;-39
2022/11/24 00:24:21;;;;;;;;;;;;;;;19.36;46.39;100057.53;5123840;28;20398;-39
2022/11/24 00:26:47;;;;;;;;;;;;;;;19.35;46.07;100055.91;5120698;28;19923;-38
2022/11/24 00:29:12;;;;;;;;;;;;;;;19.36;46.01;100057.53;5116544;28;19935;-38
2022/11/24 00:31:39;;;;;;;;;;;;;;;19.36;46.01;100056.72;5117765;28;20290;-39
2022/11/24 00:34:05;;;;;;;;;;;;;;;19.35;46.11;100055.09;5119019;28;20020;-39
2022/11/24 00:36:31;;;;;;;;;;;;;;;19.35;46.06;100055.09;5103982;28;19970;-40
2022/11/24 00:38:58;;;;;;;;;;;;;;;19.35;46.19;100064.19;5125921;28;20400;-38
2022/11/24 00:41:24;;;;;;;;;;;;;;;19.34;45.98;100065.28;5099795;28;19974;-38
2022/11/24 00:43:49;;;;;;;;;;;;;;;19.35;46.33;100069.69;5118863;28;19930;-38
2022/11/24 00:46:15;;;;;;;;;;;;;;;19.35;46.39;100071.66;5100332;28;19924;-38
2022/11/24 00:48:41;;;;;;;;;;;;;;;19.35;46.04;100071.66;5099969;28;20015;-38
2022/11/24 00:51:07;;;;;;;;;;;;;;;19.35;46.02;100075.22;5120132;28;19938;-39
2022/11/24 00:53:32;;;;;;;;;;;;;;;19.35;46.19;100077.16;5104309;28;19997;-39
2022/11/24 00:55:58;;;;;;;;;;;;;;;19.35;46.16;100071.66;5103166;28;20329;-39
2022/11/24 00:58:24;;;;;;;;;;;;;;;19.34;46.48;100076.31;5120251;28;19939;-38
2022/11/24 01:00:49;;;;;;;;;;;;;;;19.35;46.46;100077.16;5100499;28;19970;-39
2022/11/24 01:03:15;;;;;;;;;;;;;;;19.34;46.08;100083.78;5098985;28;19923;-39
2022/11/24 01:05:41;;;;;;;;;;;;;;;19.34;46.17;100089.31;5123050;28;19976;-38
2022/11/24 01:08:06;;;;;;;;;;;;;;;19.34;46.13;100094.84;5125056;28;19924;-40
2022/11/24 01:10:32;;;;;;;;;;;;;;;19.34;46.36;100094.84;5099337;28;20407;-38
2022/11/24 01:12:58;;;;;;;;;;;;;;;19.34;46.10;100089.31;5121919;28;19928;-38
2022/11/24 01:15:23;;;;;;;;;;;;;;;19.33;46.37;100088.50;5122649;28;20166;-38
2022/11/24 01:17:49;;;;;;;;;;;;;;;19.33;46.23;100085.75;5107824;28;19931;-39
2022/11/24 01:20:14;;;;;;;;;;;;;;;19.32;46.26;100095.16;5117186;27;19932;-38
2022/11/24 01:22:41;;;;;;;;;;;;;;;19.34;46.46;100094.84;5115710;28;19924;-38
2022/11/24 01:25:07;;;;;;;;;;;;;;;19.33;46.19;100094.03;5118159;28;19966;-38
2022/11/24 01:27:33;;;;;;;;;;;;;;;19.32;46.38;100099.84;5121290;28;21281;-38
2022/11/24 01:29:58;;;;;;;;;;;;;;;19.33;46.25;100109.78;5114900;28;19924;-38
2022/11/24 01:32:24;;;;;;;;;;;;;;;19.32;46.37;100103.44;5119340;28;19977;-38
2022/11/24 01:34:50;;;;;;;;;;;;;;;19.32;46.30;100097.09;5120772;28;20298;-38
2022/11/24 01:37:15;;;;;;;;;;;;;;;19.33;46.20;100104.25;5121359;28;19928;-38
2022/11/24 01:39:41;;;;;;;;;;;;;;;19.32;46.12;100100.66;5119783;28;19939;-38
2022/11/24 01:42:06;;;;;;;;;;;;;;;19.32;46.09;100099.84;5115613;28;19923;-38
2022/11/24 01:44:32;;;;;;;;;;;;;;;19.32;46.35;100105.38;5123112;28;19936;-39
2022/11/24 01:47:00;;;;;;;;;;;;;;;19.32;46.24;100108.13;5104641;28;19924;-38
2022/11/24 01:49:27;;;;;;;;;;;;;;;19.31;46.25;100107.31;5121398;28;19963;-37
2022/11/24 01:51:55;;;;;;;;;;;;;;;19.30;46.47;100100.16;5118931;28;19963;-39
2022/11/24 01:54:21;;;;;;;;;;;;;;;19.30;46.50;100106.50;5119110;28;20026;-38
2022/11/24 01:56:47;;;;;;;;;;;;;;;19.30;46.22;100109.25;5124471;28;19967;-39
2022/11/24 01:59:13;;;;;;;;;;;;;;;19.30;46.38;100109.25;5119887;28;19981;-39
2022/11/24 02:01:39;;;;;;;;;;;;;;;19.30;46.13;100114.78;5100232;28;19931;-37
2022/11/24 02:04:05;;;;;;;;;;;;;;;19.30;46.11;100114.78;5117500;28;19932;-38
2022/11/24 02:06:31;;;;;;;;;;;;;;;19.30;46.38;100109.25;5121828;28;19959;-39
2022/11/24 02:08:59;;;;;;;;;;;;;;;19.31;46.46;100121.13;5097530;28;19978;-39
2022/11/24 02:11:25;;;;;;;;;;;;;;;19.30;46.25;100114.78;5102865;28;19970;-39
2022/11/24 02:13:52;;;;;;;;;;;;;;;19.29;46.38;100121.41;5099038;28;20010;-39
2022/11/24 02:16:17;;;;;;;;;;;;;;;19.31;46.26;100126.66;5103451;28;20402;-39
2022/11/24 02:18:43;;;;;;;;;;;;;;;19.30;46.17;100120.31;5121387;27;19957;-38
2022/11/24 02:21:09;;;;;;;;;;;;;;;19.29;46.30;100123.34;5117861;28;20610;-39
2022/11/24 02:23:41;;;;;;;;;;;;;;;19.30;46.29;100130.53;5102919;28;19959;-39
2022/11/24 02:26:10;;;;;;;;;;;;;;;19.30;46.18;100127.78;5118664;28;19962;-37
2022/11/24 02:28:35;;;;;;;;;;;;;;;19.29;46.47;100129.69;5122570;28;20002;-38
2022/11/24 02:31:01;;;;;;;;;;;;;;;19.29;46.26;100126.94;5117862;28;19923;-40
2022/11/24 02:33:27;;;;;;;;;;;;;;;19.29;46.17;100132.44;5118434;28;20313;-40
2022/11/24 02:35:52;;;;;;;;;;;;;;;19.30;46.25;100131.34;5105453;28;19924;-38
2022/11/24 02:38:18;;;;;;;;;;;;;;;19.29;46.23;100134.38;5125897;28;20403;-38
2022/11/24 02:40:45;;;;;;;;;;;;;;;19.29;46.22;100135.22;5098832;28;20339;-38
2022/11/24 02:43:12;;;;;;;;;;;;;;;19.29;46.54;100126.09;5120268;28;20024;-40
2022/11/24 02:45:38;;;;;;;;;;;;;;;19.28;46.13;100136.34;5117892;28;19970;-39
2022/11/24 02:48:03;;;;;;;;;;;;;;;19.29;46.13;100131.63;5122844;28;20414;-39
2022/11/24 02:50:29;;;;;;;;;;;;;;;19.30;46.25;100144.34;5119968;28;20288;-39
2022/11/24 02:52:54;;;;;;;;;;;;;;;19.28;46.19;100139.09;5119049;28;19931;-39
2022/11/24 02:55:20;;;;;;;;;;;;;;;19.29;46.41;100145.44;5118310;28;19924;-39
2022/11/24 02:57:46;;;;;;;;;;;;;;;19.28;46.40;100138.28;5121413;28;19924;-38
2022/11/24 03:00:11;;;;;;;;;;;;;;;19.29;46.55;100137.16;5116095;28;19931;-39
2022/11/24 03:02:37;;;;;;;;;;;;;;;19.28;46.18;100138.28;5100226;28;20009;-38
2022/11/24 03:05:03;;;;;;;;;;;;;;;19.28;46.23;100139.09;5100389;28;19923;-38
2022/11/24 03:07:28;;;;;;;;;;;;;;;19.27;46.18;100134.69;5116209;28;19930;-39
2022/11/24 03:09:54;;;;;;;;;;;;;;;19.28;46.54;100139.09;5118293;28;19924;-39
2022/11/24 03:12:20;;;;;;;;;;;;;;;19.28;46.16;100141.03;5119154;28;19931;-39
2022/11/24 03:14:45;;;;;;;;;;;;;;;19.28;46.22;100154.84;5116496;28;20303;-38
2022/11/24 03:17:11;;;;;;;;;;;;;;;19.28;46.37;100161.19;5117849;28;20010;-38
2022/11/24 03:19:37;;;;;;;;;;;;;;;19.27;46.14;100162.31;5116831;27;19930;-39
2022/11/24 03:22:02;;;;;;;;;;;;;;;19.27;46.31;100162.31;5114008;28;20315;-39
2022/11/24 03:24:28;;;;;;;;;;;;;;;19.28;46.20;100163.13;5114178;28;19973;-39
2022/11/24 03:26:53;;;;;;;;;;;;;;;19.28;46.44;100160.38;5118054;28;19927;-39
2022/11/24 03:29:19;;;;;;;;;;;;;;;19.27;46.19;100159.53;5099841;28;19924;-37
2022/11/24 03:31:45;;;;;;;;;;;;;;;19.27;46.22;100165.06;5114928;28;19923;-38
2022/11/24 03:34:10;;;;;;;;;;;;;;;19.27;46.18;100167.81;5117054;28;19931;-39
2022/11/24 03:36:36;;;;;;;;;;;;;;;19.27;46.42;100167.00;5118492;28;19936;-39
2022/11/24 03:39:01;;;;;;;;;;;;;;;19.27;46.32;100172.53;5121187;28;20307;-39
2022/11/24 03:41:27;;;;;;;;;;;;;;;19.27;46.29;100176.13;5116101;28;19923;-38
2022/11/24 03:43:52;;;;;;;;;;;;;;;19.26;46.30;100168.97;5116752;27;19930;-38
2022/11/24 03:46:18;;;;;;;;;;;;;;;19.26;46.33;100171.72;5114495;28;19928;-38
2022/11/24 03:48:43;;;;;;;;;;;;;;;19.26;46.30;100174.47;5117809;28;19927;-37
2022/11/24 03:51:09;;;;;;;;;;;;;;;19.26;46.26;100174.47;5115572;28;19927;-38
2022/11/24 03:53:35;;;;;;;;;;;;;;;19.26;46.56;100182.75;5098621;28;20393;-39
2022/11/24 03:56:00;;;;;;;;;;;;;;;19.26;46.31;100184.69;5109625;28;19924;-38
2022/11/24 03:58:26;;;;;;;;;;;;;;;19.27;46.47;100186.34;5100694;28;20372;-39
2022/11/24 04:00:52;;;;;;;;;;;;;;;19.26;46.16;100188.28;5121301;28;19931;-39
2022/11/24 04:03:18;;;;;;;;;;;;;;;19.26;46.40;100190.22;5118815;28;19935;-39
2022/11/24 04:05:43;;;;;;;;;;;;;;;19.25;46.57;100200.41;5101596;28;19927;-38
2022/11/24 04:08:09;;;;;;;;;;;;;;;19.25;46.31;100189.38;5120725;28;19949;-39
2022/11/24 04:10:35;;;;;;;;;;;;;;;19.26;46.38;100191.03;5116130;28;19930;-39
2022/11/24 04:13:01;;;;;;;;;;;;;;;19.26;46.30;100188.28;5103146;28;19924;-37
2022/11/24 04:15:27;;;;;;;;;;;;;;;19.25;46.66;100186.63;5119102;28;20015;-38
2022/11/24 04:17:53;;;;;;;;;;;;;;;19.26;46.43;100181.94;5115606;28;19927;-39
2022/11/24 04:20:19;;;;;;;;;;;;;;;19.25;46.25;100191.31;5097587;28;20340;-40
2022/11/24 04:22:44;;;;;;;;;;;;;;;19.25;46.26;100191.31;5116413;28;20363;-38
2022/11/24 04:25:10;;;;;;;;;;;;;;;19.25;46.57;100189.38;5122291;28;19928;-38
2022/11/24 04:27:36;;;;;;;;;;;;;;;19.25;46.20;100189.38;5124606;28;19931;-39
2022/11/24 04:30:02;;;;;;;;;;;;;;;19.26;46.26;100192.97;5100733;28;20287;-37
2022/11/24 04:32:27;;;;;;;;;;;;;;;19.26;46.34;100198.50;5118012;28;20372;-39
2022/11/24 04:34:53;;;;;;;;;;;;;;;19.26;46.40;100192.97;5119042;28;19942;-38
2022/11/24 04:37:19;;;;;;;;;;;;;;;19.25;46.43;100200.41;5123132;28;19923;-37
2022/11/24 04:39:45;;;;;;;;;;;;;;;19.25;46.35;100186.63;5115036;28;19931;-39
2022/11/24 04:42:10;;;;;;;;;;;;;;;19.25;46.24;100199.59;5118627;28;19967;-39
2022/11/24 04:44:36;;;;;;;;;;;;;;;19.25;46.42;100199.59;5111430;28;19931;-39
2022/11/24 04:47:02;;;;;;;;;;;;;;;19.25;46.59;100211.47;5115379;28;20340;-39
2022/11/24 04:49:28;;;;;;;;;;;;;;;19.25;46.47;100216.16;5118190;27;19923;-38
2022/11/24 04:51:53;;;;;;;;;;;;;;;19.25;46.50;100219.75;5122030;28;19932;-37
2022/11/24 04:54:19;;;;;;;;;;;;;;;19.24;46.42;100218.09;5120707;27;19996;-39
2022/11/24 04:56:44;;;;;;;;;;;;;;;19.25;46.51;100214.22;5122601;28;20398;-39
2022/11/24 04:59:12;;;;;;;;;;;;;;;19.25;46.41;100210.66;5123149;28;19927;-39
2022/11/24 05:01:38;;;;;;;;;;;;;;;19.24;46.39;100212.59;5102228;28;19971;-37
2022/11/24 05:04:03;;;;;;;;;;;;;;;19.25;46.64;100218.94;5118485;28;20662;-39
2022/11/24 05:06:29;;;;;;;;;;;;;;;19.24;46.42;100215.34;5121705;28;19924;-38
2022/11/24 05:08:54;;;;;;;;;;;;;;;19.24;46.47;100218.09;5122812;28;19931;-39
2022/11/24 05:11:20;;;;;;;;;;;;;;;19.23;46.46;100216.47;5122952;28;19931;-39
2022/11/24 05:13:46;;;;;;;;;;;;;;;19.24;46.42;100229.16;5120117;28;19962;-38
2022/11/24 05:16:11;;;;;;;;;;;;;;;19.24;46.74;100218.09;5121480;28;19930;-37
2022/11/24 05:18:37;;;;;;;;;;;;;;;19.25;46.39;100227.22;5119468;28;19931;-39
2022/11/24 05:21:02;;;;;;;;;;;;;;;19.25;46.41;100235.50;5123857;28;19930;-39
2022/11/24 05:23:28;;;;;;;;;;;;;;;19.24;46.34;100234.66;5101919;28;19931;-39
2022/11/24 05:25:56;;;;;;;;;;;;;;;19.23;46.66;100238.56;5123519;28;19923;-39
2022/11/24 05:28:21;;;;;;;;;;;;;;;19.23;46.59;100241.31;5099845;28;19923;-38
2022/11/24 05:30:47;;;;;;;;;;;;;;;19.23;46.37;100251.53;5118491;28;19942;-39
2022/11/24 05:33:17;;;;;;;;;;;;;;;19.24;46.74;100254.00;5123492;28;19923;-40
2022/11/24 05:35:43;;;;;;;;;;;;;;;19.23;46.56;100257.88;5102284;28;19959;-40
2022/11/24 05:38:09;;;;;;;;;;;;;;;19.22;46.19;100261.78;5121315;28;20303;-39
2022/11/24 05:40:35;;;;;;;;;;;;;;;19.23;46.48;100266.16;5096239;28;19935;-39
2022/11/24 05:43:00;;;;;;;;;;;;;;;19.23;46.53;100265.34;5104073;28;20050;-38
2022/11/24 05:45:26;;;;;;;;;;;;;;;19.24;46.44;100270.56;5117137;28;19923;-39
2022/11/24 05:47:52;;;;;;;;;;;;;;;19.24;46.79;100278.03;5104217;28;19969;-39
2022/11/24 05:50:18;;;;;;;;;;;;;;;19.25;46.73;100274.13;5118038;28;19975;-39
2022/11/24 05:52:44;;;;;;;;;;;;;;;19.25;46.40;100285.19;5117175;28;19957;-39
2022/11/24 05:55:09;;;;;;;;;;;;;;;19.23;46.61;100285.50;5097780;28;19931;-39
2022/11/24 05:57:35;;;;;;;;;;;;;;;19.23;46.48;100279.16;5118702;28;20082;-38
2022/11/24 06:00:01;;;;;;;;;;;;;;;19.23;46.45;100284.66;5123177;27;19923;-38
2022/11/24 06:02:26;;;;;;;;;;;;;;;19.23;46.40;100292.94;5116796;28;19928;-38
2022/11/24 06:04:52;;;;;;;;;;;;;;;19.23;46.50;100299.28;5121456;27;19923;-39
2022/11/24 06:07:18;;;;;;;;;;;;;;;19.22;46.70;100292.13;5120658;28;19931;-39
2022/11/24 06:09:43;;;;;;;;;;;;;;;19.22;46.35;100292.13;5114249;28;20334;-39
2022/11/24 06:12:09;;;;;;;;;;;;;;;19.23;46.53;100290.19;5098832;28;19972;-38
2022/11/24 06:14:35;;;;;;;;;;;;;;;19.23;46.54;100296.53;5120432;28;19955;-39
2022/11/24 06:17:01;;;;;;;;;;;;;;;19.23;46.34;100295.72;5100090;28;19930;-38
2022/11/24 06:19:26;;;;;;;;;;;;;;;19.22;46.72;100303.19;5101775;28;19928;-38
2022/11/24 06:21:52;;;;;;;;;;;;;;;19.22;46.80;100305.94;5116996;28;19931;-39
2022/11/24 06:24:18;;;;;;;;;;;;;;;19.22;46.49;100314.22;5115278;28;19923;-38
2022/11/24 06:26:43;;;;;;;;;;;;;;;19.23;46.50;100320.56;5119719;28;19931;-39
2022/11/24 06:29:09;;;;;;;;;;;;;;;19.23;46.44;100324.13;5115458;28;19953;-39
2022/11/24 06:31:34;;;;;;;;;;;;;;;19.23;46.80;100332.41;5119217;28;19953;-39
2022/11/24 06:34:00;;;;;;;;;;;;;;;19.22;46.42;100333.53;5115604;28;20275;-39
2022/11/24 06:36:26;;;;;;;;;;;;;;;19.22;46.45;100341.81;5110860;28;19923;-40
2022/11/24 06:38:51;;;;;;;;;;;;;;;19.26;46.43;100353.91;5096721;28;20521;-39
2022/11/24 06:41:17;;;;;;;;;;;;;;;19.26;46.84;100348.41;5120225;28;19949;-39
2022/11/24 06:43:42;;;;;;;;;;;;;;;19.25;46.41;100349.50;5096220;28;19927;-39
2022/11/24 06:46:08;;;;;;;;;;;;;;;19.25;46.69;100345.91;5099358;28;19965;-39
2022/11/24 06:48:34;;;;;;;;;;;;;;;19.25;46.51;100348.66;5116948;28;20513;-39
2022/11/24 06:51:00;;;;;;;;;;;;;;;19.24;46.77;100355.31;5117532;28;19930;-39
2022/11/24 06:53:25;;;;;;;;;;;;;;;19.25;46.51;100359.72;5114614;28;20365;-40
2022/11/24 06:55:51;;;;;;;;;;;;;;;19.22;46.71;100363.91;5116512;28;20276;-39
2022/11/24 06:58:16;;;;;;;;;;;;;;;19.23;46.93;100364.72;5096384;28;19932;-39
2022/11/24 07:00:42;;;;;;;;;;;;;;;19.27;46.72;100363.03;5106977;28;19955;-39
2022/11/24 07:03:11;;;;;;;;;;;;;;;19.27;46.60;100374.06;5106726;28;19934;-40
2022/11/24 07:05:37;;;;;;;;;;;;;;;19.26;46.94;100387.03;5097405;28;19996;-39
2022/11/24 07:08:03;;;;;;;;;;;;;;;19.26;46.57;100389.00;5097651;28;19930;-40
2022/11/24 07:10:28;;;;;;;;;;;;;;;19.30;46.61;100396.38;5107747;28;19932;-40
2022/11/24 07:12:54;;;;;;;;;;;;;;;19.30;46.74;100403.84;5104010;28;19935;-38
2022/11/24 07:15:19;;;;;;;;;;;;;;;19.29;46.77;100405.75;5107264;28;19931;-39
2022/11/24 07:17:45;;;;;;;;;;;;;;;19.29;46.73;100407.72;5108280;27;19924;-39
2022/11/24 07:20:10;;;;;;;;;;;;;;;19.27;47.03;100409.94;5106938;28;20033;-39
2022/11/24 07:22:36;;;;;;;;;;;;;;;19.27;47.02;100413.53;5109870;28;19923;-39
2022/11/24 07:25:05;;;;;;;;;;;;;;;19.28;46.82;100425.41;5088606;28;20391;-40
2022/11/24 07:27:32;;;;;;;;;;;;;;;19.27;46.80;100423.75;5108926;28;20392;-39
2022/11/24 07:29:58;;;;;;;;;;;;;;;19.28;47.00;100439.19;5107645;28;19970;-39
2022/11/24 07:32:23;;;;;;;;;;;;;;;19.29;46.83;100435.31;5111953;28;19931;-40
2022/11/24 07:34:49;;;;;;;;;;;;;;;19.29;46.82;100446.34;5111248;28;20257;-39
2022/11/24 07:37:14;;;;;;;;;;;;;;;19.35;46.24;100452.66;5112468;28;19931;-43
2022/11/24 07:39:40;;;;;;;;;;;;;;;19.38;45.04;100458.41;5106949;28;19931;-41
2022/11/24 07:42:07;;;;;;;;;;;;;;;19.41;44.97;100457.00;5110597;28;19924;-41
2022/11/24 07:44:32;;;;;;;;;;;;;;;19.42;45.79;100476.03;5110841;28;19966;-39
2022/11/24 07:46:58;;;;;;;;;;;;;;;19.41;46.44;100482.69;5109480;28;20296;-39
2022/11/24 07:49:24;;;;;;;;;;;;;;;19.39;46.88;100481.34;5112236;28;20346;-40
2022/11/24 07:51:49;;;;;;;;;;;;;;;19.37;47.12;100484.38;5107907;28;19932;-42
2022/11/24 07:54:15;;;;;;;;;;;;;;;19.37;46.99;100489.06;5101773;28;20372;-39
2022/11/24 07:56:40;;;;;;;;;;;;;;;19.37;46.81;100498.19;5106634;28;19932;-39
2022/11/24 07:59:06;;;;;;;;;;;;;;;19.37;47.27;100506.47;5110401;28;19971;-39
2022/11/24 08:01:32;;;;;;;;;;;;;;;19.36;47.32;100515.88;5107399;28;20668;-39
2022/11/24 08:03:57;;;;;;;;;;;;;;;19.37;47.23;100503.69;5096046;28;19951;-38
2022/11/24 08:06:23;;;;;;;;;;;;;;;19.37;47.21;100511.97;5081451;28;19938;-39
2022/11/24 08:08:55;;;;;;;;;;;;;;;19.37;46.99;100514.75;5098127;28;19999;-40
2022/11/24 08:11:21;;;;;;;;;;;;;;;19.37;47.35;100517.50;5076038;28;20026;-39
2022/11/24 08:13:47;;;;;;;;;;;;;;;19.38;47.16;100527.44;5102823;28;19932;-39
2022/11/24 08:16:13;;;;;;;;;;;;;;;19.38;47.32;100524.66;5107483;27;19930;-39
2022/11/24 08:18:39;;;;;;;;;;;;;;;19.38;46.94;100529.38;5106180;27;20130;-39
2022/11/24 08:21:05;;;;;;;;;;;;;;;19.39;47.07;100536.56;5098667;28;19931;-39
2022/11/24 08:23:31;;;;;;;;;;;;;;;19.39;46.94;100536.56;5111396;28;19968;-40
2022/11/24 08:25:59;;;;;;;;;;;;;;;19.40;46.92;100538.22;5110375;28;20022;-39
2022/11/24 08:28:25;;;;;;;;;;;;;;;19.40;46.86;100540.97;5087939;27;20022;-39
2022/11/24 08:30:50;;;;;;;;;;;;;;;19.39;46.83;100548.44;5107821;28;19927;-37
2022/11/24 08:33:16;;;;;;;;;;;;;;;19.38;47.07;100544.00;5108107;28;19923;-39
2022/11/24 08:35:41;;;;;;;;;;;;;;;19.40;46.84;100549.25;5112856;28;19932;-39
2022/11/24 08:38:07;;;;;;;;;;;;;;;19.40;47.07;100549.25;5112097;28;20283;-39
2022/11/24 08:40:33;;;;;;;;;;;;;;;19.41;46.91;100554.47;5111029;28;19931;-39
2022/11/24 08:42:59;;;;;;;;;;;;;;;19.41;46.87;100556.41;5091568;28;20015;-40
2022/11/24 08:45:24;;;;;;;;;;;;;;;19.46;47.02;100570.16;5104119;28;19995;-40
2022/11/24 08:47:52;;;;;;;;;;;;;;;19.55;46.96;100566.47;5111228;27;19931;-47
2022/11/24 08:50:18;;;;;;;;;;;;;;;19.55;46.84;100571.19;5094643;28;19966;-44
2022/11/24 08:52:43;;;;;;;;;;;;;;;19.50;47.21;100572.06;5116369;28;20166;-44
2022/11/24 08:55:09;;;;;;;;;;;;;;;19.48;47.25;100579.00;5112236;28;19964;-43
2022/11/24 08:57:35;;;;;;;;;;;;;;;19.45;47.25;100585.09;5112642;28;20016;-43
2022/11/24 09:00:01;;;;;;;;;;;;;;;19.43;47.47;100581.78;5110333;28;19923;-57
2022/11/24 09:02:26;;;;;;;;;;;;;;;19.43;47.04;100584.53;5106431;28;20410;-45
2022/11/24 09:04:52;;;;;;;;;;;;;;;19.43;47.33;100590.06;5102363;28;19935;-43
2022/11/24 09:07:17;;;;;;;;;;;;;;;19.43;47.41;100606.63;5097573;28;19928;-44
2022/11/24 09:09:43;;;;;;;;;;;;;;;19.44;47.36;100602.78;5107770;27;19931;-45
2022/11/24 09:12:09;;;;;;;;;;;;;;;19.43;47.11;100598.34;5098646;28;19938;-45
2022/11/24 09:14:39;;;;;;;;;;;;;;;19.42;47.27;100611.34;5102627;28;19932;-43
2022/11/24 09:17:05;;;;;;;;;;;;;;;19.43;46.79;100613.00;5087332;28;20186;-46
2022/11/24 09:19:31;;;;;;;;;;;;;;;19.43;47.23;100615.78;5106880;28;19939;-47
2022/11/24 09:21:57;;;;;;;;;;;;;;;19.42;47.28;100616.88;5104788;28;19980;-46
2022/11/24 09:24:22;;;;;;;;;;;;;;;19.43;47.25;100615.78;5104997;28;19980;-44
2022/11/24 09:26:48;;;;;;;;;;;;;;;19.44;47.17;100622.13;5104823;28;19938;-45
2022/11/24 09:29:13;;;;;;;;;;;;;;;19.44;47.15;100625.69;5104374;28;19931;-44
2022/11/24 09:31:39;;;;;;;;;;;;;;;19.45;47.17;100632.03;5099880;28;20598;-45
2022/11/24 09:34:06;;;;;;;;;;;;;;;19.45;47.11;100630.09;5098033;28;19996;-46
2022/11/24 09:36:31;;;;;;;;;;;;;;;19.33;47.46;100634.34;5098226;28;20383;-44
2022/11/24 09:38:57;;;;;;;;;;;;;;;19.45;47.66;100634.81;5093243;27;20146;-44
2022/11/24 09:41:26;;;;;;;;;;;;;;;19.48;47.62;100642.53;5067435;28;19927;-45
2022/11/24 09:46:53;;;;;;;;;;;;;;;19.47;47.89;100651.91;5149939;27;19934;-41
2022/11/24 09:49:38;;;;;;;;;;;;;;;19.47;47.79;100649.97;5133720;27;21109;-44
2022/11/24 09:52:07;;;;;;;;;;;;;;;19.47;47.66;100660.19;5135661;27;20314;-42
2022/11/24 09:54:33;;;;;;;;;;;;;;;19.47;47.67;100655.50;5150979;27;20071;-41
2022/11/24 09:56:59;;;;;;;;;;;;;;;19.48;47.77;100661.84;5154767;27;19934;-41
2022/11/24 09:59:26;;;;;;;;;;;;;;;19.47;47.86;100657.41;5149365;27;19930;-45
2022/11/24 10:01:51;;;;;;;;;;;;;;;19.48;47.75;100659.09;5151535;27;20388;-41
2022/11/24 10:04:19;;;;;;;;;;;;;;;19.47;47.49;100662.94;5132261;27;19978;-43
2022/11/24 10:06:51;;;;;;;;;;;;;;;19.48;47.32;100670.13;5149665;27;19959;-43
2022/11/24 10:09:36;;;;;;;;;;;;;;;19.26;46.82;100668.66;5150276;27;19966;-45
2022/11/24 10:12:22;;;;;;;;;;;;;;;19.44;47.32;100664.38;5135659;27;20454;-41
2022/11/24 10:14:52;;;;;;;;;;;;;;;19.49;47.37;100669.03;5133204;27;20434;-41
2022/11/24 10:17:38;;;;;;;;;;;;;;;19.41;46.92;100675.97;5129737;27;19959;-52
2022/11/24 10:20:07;;;;;;;;;;;;;;;19.44;47.17;100680.94;5132597;27;20090;-43
2022/11/24 10:22:52;;;;;;;;;;;;;;;19.51;47.61;100684.16;5153792;27;20017;-43
2022/11/24 10:25:20;;;;;;;;;;;;;;;19.54;47.31;100686.38;5137550;27;20354;-41
2022/11/24 10:27:46;;;;;;;;;;;;;;;19.54;47.73;100691.88;5149482;27;20375;-44
2022/11/24 10:30:14;;;;;;;;;;;;;;;19.58;47.65;100696.84;5153138;27;20067;-42
2022/11/24 10:32:41;;;;;;;;;;;;;;;19.64;47.04;100702.06;5125465;27;20053;-41
2022/11/24 10:35:12;;;;;;;;;;;;;;;19.63;46.81;100699.59;5122358;27;20493;-41
2022/11/24 10:37:39;;;;;;;;;;;;;;;19.61;47.19;100699.88;5141491;27;19989;-42
2022/11/24 10:40:11;;;;;;;;;;;;;;;19.59;47.44;100692.97;5137449;27;19958;-42
2022/11/24 10:42:57;;;;;;;;;;;;;;;19.58;47.69;100692.13;5125374;27;19931;-40
2022/11/24 10:45:22;;;;;;;;;;;;;;;19.59;47.32;100707.59;5136702;27;19930;-45
2022/11/24 10:47:48;;;;;;;;;;;;;;;19.58;47.87;100705.94;5142426;27;19930;-44
2022/11/24 10:50:18;;;;;;;;;;;;;;;19.58;47.98;100707.91;5139808;27;20663;-42
2022/11/24 10:52:44;;;;;;;;;;;;;;;19.33;46.41;100715.25;5154735;27;20603;-50
2022/11/24 10:55:11;;;;;;;;;;;;;;;19.26;46.37;100715.59;5133610;27;19938;-51
2022/11/24 10:57:37;;;;;;;;;;;;;;;19.46;47.11;100711.00;5121159;27;20403;-45
2022/11/24 11:00:07;;;;;;;;;;;;;;;19.54;46.94;100713.16;5135940;27;19957;-45
2022/11/24 11:02:33;;;;;;;;;;;;;;;19.57;47.43;100712.59;5133106;27;20359;-43
2022/11/24 11:05:19;;;;;;;;;;;;;;;19.57;47.21;100711.78;5133146;27;19927;-48
2022/11/24 11:07:45;;;;;;;;;;;;;;;19.60;46.94;100725.00;5123679;27;19926;-44
2022/11/24 11:10:19;;;;;;;;;;;;;;;19.62;47.12;100720.03;5139482;27;19931;-46
2022/11/24 11:12:45;;;;;;;;;;;;;;;19.63;47.05;100716.16;5121945;27;20378;-43
2022/11/24 11:15:28;;;;;;;;;;;;;;;19.62;47.39;100715.34;5118730;27;19938;-42
2022/11/24 11:17:56;;;;;;;;;;;;;;;19.62;47.41;100723.63;5135064;27;20375;-43
2022/11/24 11:20:25;;;;;;;;;;;;;;;19.62;47.21;100720.88;5125946;27;20028;-44
2022/11/24 11:22:50;;;;;;;;;;;;;;;19.62;47.49;100720.03;5139684;27;19962;-43
2022/11/24 11:25:17;;;;;;;;;;;;;;;19.61;47.41;100730.28;5139906;27;19933;-44
2022/11/24 11:27:43;;;;;;;;;;;;;;;19.62;47.47;100725.56;5132244;27;20021;-43
2022/11/24 11:30:24;;;;;;;;;;;;;;;19.62;47.55;100737.44;5135729;27;19924;-44
2022/11/24 11:33:19;;;;;;;;;;;;;;;19.62;47.42;100737.44;5121181;27;19930;-44
2022/11/24 11:36:07;;;;;;;;;;;;;;;19.62;47.37;100742.16;5123047;27;19938;-44
2022/11/24 11:38:34;;;;;;;;;;;;;;;19.63;47.68;100735.50;5135014;27;20496;-47
2022/11/24 11:41:00;;;;;;;;;;;;;;;19.63;47.47;100741.03;5134465;27;20035;-45
2022/11/24 11:43:26;;;;;;;;;;;;;;;19.64;47.68;100745.44;5130301;27;19927;-44
2022/11/24 11:45:58;;;;;;;;;;;;;;;19.64;47.54;100743.50;5123038;27;19948;-44
2022/11/24 11:48:32;;;;;;;;;;;;;;;19.64;47.42;100751.78;5108020;27;19939;-45
2022/11/24 11:51:20;;;;;;;;;;;;;;;19.64;47.70;100742.66;5111892;27;19943;-46
2022/11/24 11:53:54;;;;;;;;;;;;;;;19.64;47.65;100737.97;5130247;27;19996;-48
2022/11/24 11:56:23;;;;;;;;;;;;;;;19.64;47.53;100746.25;5127167;27;20363;-44
2022/11/24 11:59:08;;;;;;;;;;;;;;;19.65;47.31;100741.56;5111136;27;20180;-47
2022/11/24 12:01:54;;;;;;;;;;;;;;;19.64;47.42;100735.19;5121722;27;20377;-44
2022/11/24 12:04:39;;;;;;;;;;;;;;;19.65;47.39;100725.00;5117007;27;19978;-56
2022/11/24 12:07:25;;;;;;;;;;;;;;;19.75;47.01;100734.03;5120402;27;20394;-44
2022/11/24 12:09:55;;;;;;;;;;;;;;;19.72;47.26;100744.81;5121028;27;19930;-45
2022/11/24 12:12:25;;;;;;;;;;;;;;;19.72;47.15;100744.81;5142278;27;19979;-46
2022/11/24 12:15:00;;;;;;;;;;;;;;;19.70;47.32;100734.06;5138743;27;20026;-46
2022/11/24 12:17:34;;;;;;;;;;;;;;;19.68;47.51;100733.50;5130856;27;19931;-45
2022/11/24 12:20:20;;;;;;;;;;;;;;;19.70;47.41;100733.25;5133511;27;19966;-44
2022/11/24 12:22:47;;;;;;;;;;;;;;;19.68;47.55;100733.50;5118039;27;20654;-44
2022/11/24 12:25:22;;;;;;;;;;;;;;;19.76;47.34;100735.66;5131148;27;20435;-44
2022/11/24 12:27:51;;;;;;;;;;;;;;;19.77;47.18;100739.25;5135182;27;19978;-51
2022/11/24 12:30:16;;;;;;;;;;;;;;;19.77;47.55;100737.34;5132057;27;19967;-43
2022/11/24 12:32:54;;;;;;;;;;;;;;;19.77;47.25;100745.63;5105765;27;19923;-43
2022/11/24 12:35:26;;;;;;;;;;;;;;;19.74;47.30;100737.09;5129068;27;20443;-44
2022/11/24 12:37:58;;;;;;;;;;;;;;;19.73;47.67;100733.50;5131909;27;20030;-45